createdAt,value
2023-04-28T00:02:31.815Z,8.87
2023-04-28T00:12:34.160Z,8.70
2023-04-28T00:22:36.541Z,8.13
2023-04-28T00:32:41.529Z,9.00
2023-04-28T00:42:46.707Z,8.67
2023-04-28T00:52:52.109Z,8.83
2023-04-28T01:03:00.146Z,8.10
2023-04-28T01:13:12.807Z,8.23
2023-04-28T01:23:18.708Z,8.57
2023-04-28T01:33:26.979Z,8.77
2023-04-28T01:43:30.290Z,9.53
2023-04-28T01:53:34.415Z,8.50
2023-04-28T02:03:40.303Z,10.40
2023-04-28T02:13:43.973Z,8.87
2023-04-28T02:23:47.002Z,9.33
2023-04-28T02:33:53.961Z,9.80
2023-04-28T02:43:58.028Z,8.90
2023-04-28T02:54:00.360Z,9.90
2023-04-28T03:04:05.282Z,9.27
2023-04-28T03:14:13.746Z,9.07
2023-04-28T03:24:17.875Z,9.20
2023-04-28T03:34:25.639Z,10.13
2023-04-28T03:44:31.007Z,9.93
2023-04-28T03:54:33.985Z,9.50
2023-04-28T04:04:36.603Z,9.97
2023-04-28T04:14:42.053Z,10.30
2023-04-28T04:24:48.587Z,10.70
2023-04-28T04:34:53.399Z,11.50
2023-04-28T04:44:58.227Z,11.17
2023-04-28T04:55:06.332Z,11.55
2023-04-28T05:05:20.440Z,11.60
2023-04-28T05:15:45.186Z,10.82
2023-04-28T05:26:03.330Z,10.30
2023-04-28T05:36:27.810Z,11.15
2023-04-28T05:46:32.939Z,10.98
2023-04-28T05:56:40.100Z,10.65
2023-04-28T06:06:44.010Z,9.50
2023-04-28T06:16:46.529Z,10.15
2023-04-28T06:26:49.808Z,9.63
2023-04-28T06:36:54.371Z,7.32
2023-04-28T06:46:56.770Z,6.38
2023-04-28T06:57:00.398Z,6.00
2023-04-28T07:07:08.655Z,4.88
2023-04-28T07:17:11.145Z,4.32
2023-04-28T07:27:13.397Z,3.92
2023-04-28T07:37:15.628Z,3.70
2023-04-28T07:47:20.528Z,2.80
2023-04-28T07:57:30.784Z,2.67
2023-04-28T08:07:37.501Z,2.90
2023-04-28T08:17:39.752Z,1.92
2023-04-28T08:27:43.788Z,2.55
2023-04-28T08:37:46.712Z,2.28
2023-04-28T08:47:52.253Z,2.22
2023-04-28T08:57:58.512Z,2.60
2023-04-28T09:08:06.572Z,2.85
2023-04-28T09:18:12.451Z,2.97
2023-04-28T09:28:24.022Z,3.05
2023-04-28T09:38:31.414Z,3.33
2023-04-28T09:48:38.444Z,2.65
2023-04-28T09:58:43.978Z,2.95
2023-04-28T10:08:58.084Z,3.30
2023-04-28T10:19:07.681Z,2.80
2023-04-28T10:29:19.352Z,2.80
2023-04-28T10:39:22.559Z,2.97
2023-04-28T10:49:58.882Z,3.15
2023-04-28T11:00:29.080Z,2.50
2023-04-28T11:11:14.912Z,2.25
2023-04-28T11:21:23.622Z,2.60
2023-04-28T11:31:30.056Z,2.60
2023-04-28T11:41:37.093Z,2.22
2023-04-28T11:51:43.553Z,2.50
2023-04-28T12:01:54.589Z,2.88
2023-04-28T12:12:05.305Z,2.78
2023-04-28T12:22:18.315Z,2.55
2023-04-28T12:32:40.210Z,2.80
2023-04-28T12:42:44.357Z,2.78
2023-04-28T13:03:14.109Z,2.78
2023-04-28T13:13:23.209Z,3.30
2023-04-28T13:23:34.739Z,3.28
2023-04-28T13:33:53.178Z,3.47
2023-04-28T13:44:02.023Z,3.08
2023-04-28T13:54:10.906Z,3.88
2023-04-28T14:04:18.124Z,3.58
2023-04-28T14:14:23.048Z,4.35
2023-04-28T14:24:28.972Z,4.60
2023-04-28T14:34:33.133Z,4.70
2023-04-28T14:44:39.087Z,4.13
2023-04-28T14:54:46.489Z,4.88
2023-04-28T15:04:54.268Z,4.93
2023-04-28T15:15:01.310Z,4.55
2023-04-28T15:25:03.865Z,5.07
2023-04-28T15:35:09.175Z,4.45
2023-04-28T15:45:21.033Z,4.60
2023-04-28T15:55:24.307Z,5.00
2023-04-28T16:05:29.995Z,4.75
2023-04-28T16:15:34.854Z,4.60
2023-04-28T16:25:42.250Z,4.60
2023-04-28T16:35:45.187Z,4.35
2023-04-28T16:45:48.805Z,4.63
2023-04-28T16:55:57.030Z,4.57
2023-04-28T17:05:59.929Z,5.20
2023-04-28T17:16:04.380Z,4.93
2023-04-28T17:26:08.955Z,4.45
2023-04-28T17:36:17.038Z,4.60
2023-04-28T17:46:22.319Z,3.75
2023-04-28T17:56:24.835Z,4.60
2023-04-28T18:06:30.278Z,5.40
2023-04-28T18:16:34.734Z,4.80
2023-04-28T18:26:37.275Z,5.32
2023-04-28T18:36:39.427Z,4.82
2023-04-28T18:46:55.012Z,5.55
2023-04-28T18:56:59.986Z,5.38
2023-04-28T19:07:03.615Z,6.00
2023-04-28T19:17:09.191Z,6.20
2023-04-28T19:27:14.178Z,6.95
2023-04-28T19:37:21.189Z,7.78
2023-04-28T19:47:34.389Z,7.32
2023-04-28T19:57:43.069Z,7.70
2023-04-28T20:07:55.370Z,9.63
2023-04-28T20:17:59.444Z,9.47
2023-04-28T20:28:01.682Z,9.10
2023-04-28T20:38:07.376Z,10.02
2023-04-28T20:48:11.044Z,8.87
2023-04-28T20:58:15.526Z,10.07
2023-04-28T21:08:17.717Z,9.50
2023-04-28T21:18:25.447Z,10.57
2023-04-28T21:28:30.424Z,9.30
2023-04-28T21:38:40.683Z,8.73
2023-04-28T21:48:46.674Z,10.00
2023-04-28T21:58:52.376Z,10.30
2023-04-28T22:08:57.571Z,7.07
2023-04-28T22:19:03.957Z,9.97
2023-04-28T22:29:10.922Z,10.50
2023-04-28T22:39:17.733Z,9.43
2023-04-28T22:49:29.837Z,11.03
2023-04-28T22:59:35.291Z,11.37
2023-04-28T23:09:40.501Z,11.63
2023-04-28T23:19:45.317Z,11.37
2023-04-28T23:29:49.312Z,11.40
2023-04-28T23:39:52.112Z,10.07
2023-04-28T23:49:55.475Z,11.50
